Terminal Aerodrome Forecast
Issued by NWS

Current Version | Previous Version | Graphics & Text | Print | Product List | Glossary On
Versions: 1 2 3 4 5 6 7 8 9 10 11 12 13 14 15 16 17 18 19 20 21 22 23 24 25 26 27 28
000
FTUS41 KILN 280537
TAFLUK
TAF
KLUK 280537Z 2806/2906 00000KT P6SM FEW025 BKN070
      TEMPO 2806/2810 4SM BR BKN012
     FM281000 28004KT P6SM VCSH SCT012 BKN025
      TEMPO 2810/2814 4SM -RA BR BKN012 OVC040
     FM281600 36008KT P6SM SCT035
     FM282200 01012KT P6SM SKC
     FM290400 02008KT P6SM SCT010=

USA.gov is the U.S. government's official web portal to all federal, state and local government web resources and services.